Station History

Weather Underground - logo

Station Historical Data
Daily Summary for January 25, 2018 Units:  Both    English   Metric
« Previous Day
Next Day »
Daily Weekly Monthly Yearly Custom
  High: Low: Average:
Temperature: 58.2 °F /  14.6 °C 37.6 °F /  3.1 °C 48.8 °F /  9.3 °C
Dew Point: 46.6 °F /  8.1 °C 34.9 °F /  1.6 °C 41.8 °F /  5.4 °C
Humidity: 95 % 47 % 79 %
Wind Speed: 5.8 mph /  9.3 km/h - 1.4 mph /  2.3 km/h
Wind Gust: 5.8 mph /  9.3 km/h - -
Wind:- - WSW
Pressure: 30.24 in /  1023.9 hPa 30.02 in /  1016.5 hPa -
Precipitation: 0.24 in /  6.1 mm    
Historical Graphs
 
 
Tabular Data for January 25, 2018
Time Temperature Dew Point Pressure Wind Wind Speed Wind Gust Humidity Rainfall Rate (Hourly)
00:02 51.2 °F /  10.7 °C 45.6 °F /  7.6 °C 30.04 in /  1017.2 hPa NW 4.6 mph /  7.4 km/h 4.6 mph /  7.4 km/h 81 % 0.00 in /  0 mm
00:07 51.4 °F /  10.8 °C 45.4 °F /  7.4 °C 30.04 in /  1017.2 hPa NW 4.6 mph /  7.4 km/h 4.6 mph /  7.4 km/h 80 % 0.00 in /  0 mm
00:12 51.4 °F /  10.8 °C 45.4 °F /  7.4 °C 30.04 in /  1017.2 hPa NW 3.5 mph /  5.6 km/h 3.5 mph /  5.6 km/h 80 % 0.00 in /  0 mm
00:17 51.4 °F /  10.8 °C 45.4 °F /  7.4 °C 30.04 in /  1017.2 hPa NW 3.5 mph /  5.6 km/h 3.5 mph /  5.6 km/h 80 % 0.00 in /  0 mm
00:22 51.6 °F /  10.9 °C 45.3 °F /  7.4 °C 30.04 in /  1017.2 hPa NW 4.6 mph /  7.4 km/h 4.6 mph /  7.4 km/h 79 % 0.00 in /  0 mm
00:27 51.9 °F /  11.1 °C 45.3 °F /  7.4 °C 30.04 in /  1017.2 hPa NW 3.5 mph /  5.6 km/h 3.5 mph /  5.6 km/h 78 % 0.00 in /  0 mm
00:32 51.9 °F /  11.1 °C 45.3 °F /  7.4 °C 30.04 in /  1017.2 hPa NW 1.2 mph /  1.9 km/h 1.2 mph /  1.9 km/h 78 % 0.00 in /  0 mm
00:37 51.8 °F /  11 °C 45.2 °F /  7.3 °C 30.04 in /  1017.2 hPa WNW 1.2 mph /  1.9 km/h   78 % 0.00 in /  0 mm
00:42 51.7 °F /  10.9 °C 45.1 °F /  7.3 °C 30.03 in /  1016.8 hPa NNW 1.2 mph /  1.9 km/h   78 % 0.00 in /  0 mm
00:47 51.5 °F /  10.8 °C 45.2 °F /  7.3 °C 30.04 in /  1017.2 hPa Calm     79 % 0.00 in /  0 mm
00:52 51.2 °F /  10.7 °C 44.9 °F /  7.2 °C 30.04 in /  1017.2 hPa Calm     79 % 0.00 in /  0 mm
00:57 50.9 °F /  10.5 °C 44.9 °F /  7.2 °C 30.04 in /  1017.2 hPa Calm     80 % 0.00 in /  0 mm
01:02 50.7 °F /  10.4 °C 44.8 °F /  7.1 °C 30.03 in /  1016.8 hPa Calm     80 % 0.00 in /  0 mm
01:07 50.4 °F /  10.2 °C 44.8 °F /  7.1 °C 30.03 in /  1016.8 hPa Calm     81 % 0.00 in /  0 mm
01:12 50.1 °F /  10.1 °C 44.5 °F /  6.9 °C 30.03 in /  1016.8 hPa Calm     81 % 0.00 in /  0 mm
01:17 49.8 °F /  9.9 °C 44.5 °F /  6.9 °C 30.03 in /  1016.8 hPa Calm     82 % 0.00 in /  0 mm
01:22 49.6 °F /  9.8 °C 44.6 °F /  7 °C 30.03 in /  1016.8 hPa Calm     83 % 0.00 in /  0 mm
01:28 49.3 °F /  9.6 °C 44.4 °F /  6.9 °C 30.03 in /  1016.8 hPa Calm     83 % 0.00 in /  0 mm
01:33 49.1 °F /  9.5 °C 44.5 °F /  6.9 °C 30.03 in /  1016.8 hPa Calm     84 % 0.00 in /  0 mm
01:38 49.0 °F /  9.4 °C 44.7 °F /  7.1 °C 30.02 in /  1016.5 hPa Calm     85 % 0.00 in /  0 mm
01:43 48.9 °F /  9.4 °C 44.6 °F /  7 °C 30.02 in /  1016.5 hPa Calm     85 % 0.00 in /  0 mm
01:48 48.7 °F /  9.3 °C 44.4 °F /  6.9 °C 30.02 in /  1016.5 hPa Calm     85 % 0.00 in /  0 mm
01:53 48.4 °F /  9.1 °C 44.4 °F /  6.9 °C 30.02 in /  1016.5 hPa Calm     86 % 0.00 in /  0 mm
01:58 48.2 °F /  9 °C 44.2 °F /  6.8 °C 30.02 in /  1016.5 hPa Calm     86 % 0.00 in /  0 mm
02:03 47.9 °F /  8.8 °C 44.2 °F /  6.8 °C 30.02 in /  1016.5 hPa Calm     87 % 0.00 in /  0 mm
02:08 47.9 °F /  8.8 °C 44.5 °F /  6.9 °C 30.02 in /  1016.5 hPa Calm     88 % 0.00 in /  0 mm
02:13 47.9 °F /  8.8 °C 44.5 °F /  6.9 °C 30.03 in /  1016.8 hPa Calm     88 % 0.00 in /  0 mm
02:18 47.9 °F /  8.8 °C 44.5 °F /  6.9 °C 30.03 in /  1016.8 hPa Calm     88 % 0.00 in /  0 mm
02:23 47.9 °F /  8.8 °C 44.5 °F /  6.9 °C 30.03 in /  1016.8 hPa Calm     88 % 0.00 in /  0 mm
02:28 47.9 °F /  8.8 °C 44.5 °F /  6.9 °C 30.03 in /  1016.8 hPa WNW 1.2 mph /  1.9 km/h 1.2 mph /  1.9 km/h 88 % 0.00 in /  0 mm
02:33 47.9 °F /  8.8 °C 44.8 °F /  7.1 °C 30.03 in /  1016.8 hPa NNW 1.2 mph /  1.9 km/h   89 % 0.00 in /  0 mm
02:38 47.8 °F /  8.8 °C 44.7 °F /  7.1 °C 30.03 in /  1016.8 hPa SSE 1.0 mph /  1.6 km/h 1.0 mph /  1.6 km/h 89 % 0.00 in /  0 mm
02:43 47.7 °F /  8.7 °C 44.6 °F /  7 °C 30.04 in /  1017.2 hPa SSE 1.0 mph /  1.6 km/h 1.0 mph /  1.6 km/h 89 % 0.00 in /  0 mm
02:48 47.6 °F /  8.7 °C 44.5 °F /  6.9 °C 30.04 in /  1017.2 hPa ESE 1.2 mph /  1.9 km/h   89 % 0.00 in /  0 mm
02:53 47.5 °F /  8.6 °C 44.4 °F /  6.9 °C 30.04 in /  1017.2 hPa ESE 1.2 mph /  1.9 km/h 1.2 mph /  1.9 km/h 89 % 0.00 in /  0 mm
02:58 47.4 °F /  8.6 °C 44.3 °F /  6.8 °C 30.03 in /  1016.8 hPa East 2.0 mph /  3.2 km/h 2.0 mph /  3.2 km/h 89 % 0.00 in /  0 mm
03:04 47.3 °F /  8.5 °C 44.2 °F /  6.8 °C 30.04 in /  1017.2 hPa East 1.0 mph /  1.6 km/h   89 % 0.00 in /  0 mm
03:09 47.3 °F /  8.5 °C 44.2 °F /  6.8 °C 30.04 in /  1017.2 hPa Calm     89 % 0.00 in /  0 mm
03:14 47.2 °F /  8.4 °C 44.4 °F /  6.9 °C 30.03 in /  1016.8 hPa East 1.2 mph /  1.9 km/h 1.2 mph /  1.9 km/h 90 % 0.00 in /  0 mm
03:19 47.2 °F /  8.4 °C 44.4 °F /  6.9 °C 30.04 in /  1017.2 hPa Calm     90 % 0.00 in /  0 mm
03:24 47.1 °F /  8.4 °C 44.3 °F /  6.8 °C 30.03 in /  1016.8 hPa East 1.2 mph /  1.9 km/h 1.2 mph /  1.9 km/h 90 % 0.00 in /  0 mm
03:29 47.1 °F /  8.4 °C 44.3 °F /  6.8 °C 30.03 in /  1016.8 hPa East 1.2 mph /  1.9 km/h   90 % 0.00 in /  0 mm
03:34 47.0 °F /  8.3 °C 44.2 °F /  6.8 °C 30.04 in /  1017.2 hPa East 2.3 mph /  3.7 km/h 2.3 mph /  3.7 km/h 90 % 0.00 in /  0 mm
03:39 46.8 °F /  8.2 °C 44.0 °F /  6.7 °C 30.03 in /  1016.8 hPa Calm     90 % 0.00 in /  0 mm
03:44 46.7 °F /  8.2 °C 43.9 °F /  6.6 °C 30.03 in /  1016.8 hPa Calm     90 % 0.00 in /  0 mm
03:49 46.6 °F /  8.1 °C 43.8 °F /  6.6 °C 30.04 in /  1017.2 hPa East 1.2 mph /  1.9 km/h 1.2 mph /  1.9 km/h 90 % 0.00 in /  0 mm
03:54 46.5 °F /  8.1 °C 43.7 °F /  6.5 °C 30.05 in /  1017.5 hPa Calm     90 % 0.00 in /  0 mm
03:59 46.4 °F /  8 °C 43.9 °F /  6.6 °C 30.05 in /  1017.5 hPa Calm     91 % 0.00 in /  0 mm
04:04 46.4 °F /  8 °C 43.9 °F /  6.6 °C 30.05 in /  1017.5 hPa Calm     91 % 0.00 in /  0 mm
04:09 46.4 °F /  8 °C 43.9 °F /  6.6 °C 30.05 in /  1017.5 hPa Calm     91 % 0.00 in /  0 mm
04:14 46.3 °F /  7.9 °C 43.8 °F /  6.6 °C 30.04 in /  1017.2 hPa East 1.2 mph /  1.9 km/h   91 % 0.00 in /  0 mm
04:19 46.2 °F /  7.9 °C 44.0 °F /  6.7 °C 30.04 in /  1017.2 hPa Calm     92 % 0.00 in /  0 mm
04:24 46.2 °F /  7.9 °C 44.0 °F /  6.7 °C 30.05 in /  1017.5 hPa East 1.2 mph /  1.9 km/h   92 % 0.00 in /  0 mm
04:29 46.1 °F /  7.8 °C 43.9 °F /  6.6 °C 30.05 in /  1017.5 hPa Calm     92 % 0.00 in /  0 mm
04:34 46.0 °F /  7.8 °C 43.8 °F /  6.6 °C 30.05 in /  1017.5 hPa East 1.2 mph /  1.9 km/h 1.2 mph /  1.9 km/h 92 % 0.00 in /  0 mm
04:39 46.0 °F /  7.8 °C 43.8 °F /  6.6 °C 30.05 in /  1017.5 hPa East 1.2 mph /  1.9 km/h 1.2 mph /  1.9 km/h 92 % 0.00 in /  0 mm
04:44 46.0 °F /  7.8 °C 43.8 °F /  6.6 °C 30.05 in /  1017.5 hPa East 2.3 mph /  3.7 km/h 2.3 mph /  3.7 km/h 92 % 0.00 in /  0 mm
04:49 46.0 °F /  7.8 °C 43.8 °F /  6.6 °C 30.05 in /  1017.5 hPa East 1.2 mph /  1.9 km/h 1.2 mph /  1.9 km/h 92 % 0.00 in /  0 mm
04:54 45.9 °F /  7.7 °C 44.0 °F /  6.7 °C 30.05 in /  1017.5 hPa East 1.2 mph /  1.9 km/h 1.2 mph /  1.9 km/h 93 % 0.00 in /  0 mm
04:59 45.9 °F /  7.7 °C 44.0 °F /  6.7 °C 30.06 in /  1017.8 hPa East 3.0 mph /  4.8 km/h 3.0 mph /  4.8 km/h 93 % 0.00 in /  0 mm
05:04 45.9 °F /  7.7 °C 44.0 °F /  6.7 °C 30.06 in /  1017.8 hPa East 1.2 mph /  1.9 km/h 1.2 mph /  1.9 km/h 93 % 0.00 in /  0 mm
05:09 45.8 °F /  7.7 °C 43.9 °F /  6.6 °C 30.06 in /  1017.8 hPa Calm     93 % 0.00 in /  0 mm
05:14 45.7 °F /  7.6 °C 43.8 °F /  6.6 °C 30.06 in /  1017.8 hPa East 1.2 mph /  1.9 km/h 1.2 mph /  1.9 km/h 93 % 0.00 in /  0 mm
05:20 45.8 °F /  7.7 °C 43.9 °F /  6.6 °C 30.06 in /  1017.8 hPa Calm     93 % 0.00 in /  0 mm
05:25 45.9 °F /  7.7 °C 44.0 °F /  6.7 °C 30.06 in /  1017.8 hPa Calm     93 % 0.00 in /  0 mm
05:30 45.9 °F /  7.7 °C 44.0 °F /  6.7 °C 30.07 in /  1018.2 hPa East 1.2 mph /  1.9 km/h 1.2 mph /  1.9 km/h 93 % 0.01 in /  0.25 mm
05:35 46.1 °F /  7.8 °C 44.5 °F /  6.9 °C 30.07 in /  1018.2 hPa Calm     94 % 0.01 in /  0.25 mm
05:40 46.1 °F /  7.8 °C 44.5 °F /  6.9 °C 30.07 in /  1018.2 hPa Calm     94 % 0.01 in /  0.25 mm
05:45 46.1 °F /  7.8 °C 44.5 °F /  6.9 °C 30.07 in /  1018.2 hPa East 1.2 mph /  1.9 km/h 1.2 mph /  1.9 km/h 94 % 0.02 in /  0.51 mm
05:50 46.1 °F /  7.8 °C 44.5 °F /  6.9 °C 30.08 in /  1018.5 hPa East 2.3 mph /  3.7 km/h 2.3 mph /  3.7 km/h 94 % 0.02 in /  0.51 mm
05:55 46.1 °F /  7.8 °C 44.5 °F /  6.9 °C 30.08 in /  1018.5 hPa Calm     94 % 0.03 in /  0.76 mm
06:00 46.1 °F /  7.8 °C 44.5 °F /  6.9 °C 30.08 in /  1018.5 hPa Calm     94 % 0.03 in /  0.76 mm
06:05 46.2 °F /  7.9 °C 44.6 °F /  7 °C 30.09 in /  1018.8 hPa Calm     94 % 0.04 in /  1.02 mm
06:10 46.3 °F /  7.9 °C 44.7 °F /  7.1 °C 30.09 in /  1018.8 hPa Calm     94 % 0.06 in /  1.52 mm
06:15 46.3 °F /  7.9 °C 44.7 °F /  7.1 °C 30.09 in /  1018.8 hPa Calm     94 % 0.07 in /  1.78 mm
06:20 46.3 °F /  7.9 °C 44.7 °F /  7.1 °C 30.09 in /  1018.8 hPa Calm     94 % 0.08 in /  2.03 mm
06:25 46.4 °F /  8 °C 44.8 °F /  7.1 °C 30.09 in /  1018.8 hPa Calm     94 % 0.09 in /  2.29 mm
06:30 46.4 °F /  8 °C 45.0 °F /  7.2 °C 30.09 in /  1018.8 hPa East 1.2 mph /  1.9 km/h   95 % 0.09 in /  2.29 mm
06:35 46.5 °F /  8.1 °C 45.1 °F /  7.3 °C 30.09 in /  1018.8 hPa Calm   0.1 mph /  0.2 km/h 95 % 0.10 in /  2.54 mm
06:40 46.5 °F /  8.1 °C 45.1 °F /  7.3 °C 30.10 in /  1019.2 hPa Calm     95 % 0.10 in /  2.54 mm
06:45 46.6 °F /  8.1 °C 45.2 °F /  7.3 °C 30.10 in /  1019.2 hPa Calm     95 % 0.10 in /  2.54 mm
06:50 46.6 °F /  8.1 °C 45.2 °F /  7.3 °C 30.10 in /  1019.2 hPa Calm     95 % 0.10 in /  2.54 mm
06:55 46.7 °F /  8.2 °C 45.3 °F /  7.4 °C 30.10 in /  1019.2 hPa Calm     95 % 0.10 in /  2.54 mm
07:00 46.7 °F /  8.2 °C 45.3 °F /  7.4 °C 30.10 in /  1019.2 hPa Calm     95 % 0.10 in /  2.54 mm
07:05 46.9 °F /  8.3 °C 45.5 °F /  7.5 °C 30.10 in /  1019.2 hPa NW 2.3 mph /  3.7 km/h 2.3 mph /  3.7 km/h 95 % 0.11 in /  2.79 mm
07:10 47.2 °F /  8.4 °C 45.8 °F /  7.7 °C 30.10 in /  1019.2 hPa NNW 1.2 mph /  1.9 km/h 1.2 mph /  1.9 km/h 95 % 0.10 in /  2.54 mm
07:15 47.4 °F /  8.6 °C 46.0 °F /  7.8 °C 30.10 in /  1019.2 hPa Calm     95 % 0.09 in /  2.29 mm
07:20 47.5 °F /  8.6 °C 46.1 °F /  7.8 °C 30.10 in /  1019.2 hPa NW 2.0 mph /  3.2 km/h 2.0 mph /  3.2 km/h 95 % 0.09 in /  2.29 mm
07:25 47.5 °F /  8.6 °C 46.1 °F /  7.8 °C 30.10 in /  1019.2 hPa WNW 5.8 mph /  9.3 km/h 5.8 mph /  9.3 km/h 95 % 0.08 in /  2.03 mm
07:30 47.5 °F /  8.6 °C 45.9 °F /  7.7 °C 30.10 in /  1019.2 hPa NW 3.5 mph /  5.6 km/h 3.5 mph /  5.6 km/h 94 % 0.07 in /  1.78 mm
07:36 47.5 °F /  8.6 °C 45.9 °F /  7.7 °C 30.10 in /  1019.2 hPa NW 3.5 mph /  5.6 km/h 3.5 mph /  5.6 km/h 94 % 0.06 in /  1.52 mm
07:41 47.5 °F /  8.6 °C 45.9 °F /  7.7 °C 30.11 in /  1019.5 hPa NW 2.3 mph /  3.7 km/h 2.3 mph /  3.7 km/h 94 % 0.06 in /  1.52 mm
07:46 47.5 °F /  8.6 °C 45.9 °F /  7.7 °C 30.11 in /  1019.5 hPa NW 1.2 mph /  1.9 km/h 1.2 mph /  1.9 km/h 94 % 0.05 in /  1.27 mm
07:51 47.5 °F /  8.6 °C 45.9 °F /  7.7 °C 30.11 in /  1019.5 hPa WNW 2.3 mph /  3.7 km/h 2.3 mph /  3.7 km/h 94 % 0.05 in /  1.27 mm
07:56 47.6 °F /  8.7 °C 45.7 °F /  7.6 °C 30.11 in /  1019.5 hPa North 2.3 mph /  3.7 km/h 2.3 mph /  3.7 km/h 93 % 0.04 in /  1.02 mm
08:01 47.6 °F /  8.7 °C 45.7 °F /  7.6 °C 30.12 in /  1019.9 hPa NW 2.3 mph /  3.7 km/h 2.3 mph /  3.7 km/h 93 % 0.03 in /  0.76 mm
08:06 47.6 °F /  8.7 °C 45.7 °F /  7.6 °C 30.12 in /  1019.9 hPa NW 3.5 mph /  5.6 km/h 3.5 mph /  5.6 km/h 93 % 0.02 in /  0.51 mm
08:11 47.5 °F /  8.6 °C 45.6 °F /  7.6 °C 30.12 in /  1019.9 hPa NW 1.2 mph /  1.9 km/h 1.2 mph /  1.9 km/h 93 % 0.02 in /  0.51 mm
08:16 47.5 °F /  8.6 °C 45.6 °F /  7.6 °C 30.13 in /  1020.2 hPa NW 2.3 mph /  3.7 km/h 2.3 mph /  3.7 km/h 93 % 0.01 in /  0.25 mm
08:21 47.4 °F /  8.6 °C 45.5 °F /  7.5 °C 30.13 in /  1020.2 hPa WNW 2.0 mph /  3.2 km/h 2.0 mph /  3.2 km/h 93 % 0.01 in /  0.25 mm
08:26 47.3 °F /  8.5 °C 45.4 °F /  7.4 °C 30.13 in /  1020.2 hPa NNW 1.2 mph /  1.9 km/h 1.2 mph /  1.9 km/h 93 % 0.02 in /  0.51 mm
08:31 47.2 °F /  8.4 °C 45.3 °F /  7.4 °C 30.13 in /  1020.2 hPa NW 3.5 mph /  5.6 km/h 3.5 mph /  5.6 km/h 93 % 0.03 in /  0.76 mm
08:36 47.2 °F /  8.4 °C 45.3 °F /  7.4 °C 30.13 in /  1020.2 hPa NW 2.3 mph /  3.7 km/h 2.3 mph /  3.7 km/h 93 % 0.03 in /  0.76 mm
08:41 47.3 °F /  8.5 °C 45.4 °F /  7.4 °C 30.13 in /  1020.2 hPa NW 2.3 mph /  3.7 km/h 2.3 mph /  3.7 km/h 93 % 0.04 in /  1.02 mm
08:46 47.3 °F /  8.5 °C 45.4 °F /  7.4 °C 30.14 in /  1020.5 hPa NW 4.6 mph /  7.4 km/h 4.6 mph /  7.4 km/h 93 % 0.04 in /  1.02 mm
08:51 47.2 °F /  8.4 °C 45.3 °F /  7.4 °C 30.14 in /  1020.5 hPa WNW 1.2 mph /  1.9 km/h 1.2 mph /  1.9 km/h 93 % 0.05 in /  1.27 mm
08:56 47.1 °F /  8.4 °C 44.9 °F /  7.2 °C 30.14 in /  1020.5 hPa NNW 2.3 mph /  3.7 km/h 2.3 mph /  3.7 km/h 92 % 0.05 in /  1.27 mm
09:01 47.0 °F /  8.3 °C 44.8 °F /  7.1 °C 30.14 in /  1020.5 hPa NW 2.3 mph /  3.7 km/h 2.3 mph /  3.7 km/h 92 % 0.06 in /  1.52 mm
09:06 46.9 °F /  8.3 °C 44.7 °F /  7.1 °C 30.14 in /  1020.5 hPa ENE 1.2 mph /  1.9 km/h   92 % 0.07 in /  1.78 mm
09:11 46.8 °F /  8.2 °C 44.6 °F /  7 °C 30.14 in /  1020.5 hPa NNE 1.2 mph /  1.9 km/h 1.2 mph /  1.9 km/h 92 % 0.06 in /  1.52 mm
09:16 46.9 °F /  8.3 °C 44.7 °F /  7.1 °C 30.14 in /  1020.5 hPa West 2.3 mph /  3.7 km/h 2.3 mph /  3.7 km/h 92 % 0.06 in /  1.52 mm
09:21 47.0 °F /  8.3 °C 44.8 °F /  7.1 °C 30.14 in /  1020.5 hPa NW 3.5 mph /  5.6 km/h 3.5 mph /  5.6 km/h 92 % 0.06 in /  1.52 mm
09:26 47.1 °F /  8.4 °C 44.9 °F /  7.2 °C 30.14 in /  1020.5 hPa NW 1.2 mph /  1.9 km/h   92 % 0.05 in /  1.27 mm
09:31 47.2 °F /  8.4 °C 45.0 °F /  7.2 °C 30.14 in /  1020.5 hPa NNE 1.2 mph /  1.9 km/h   92 % 0.04 in /  1.02 mm
09:36 47.2 °F /  8.4 °C 44.7 °F /  7.1 °C 30.14 in /  1020.5 hPa WNW 2.3 mph /  3.7 km/h 2.3 mph /  3.7 km/h 91 % 0.04 in /  1.02 mm
09:41 47.5 °F /  8.6 °C 45.3 °F /  7.4 °C 30.15 in /  1020.9 hPa WNW 1.2 mph /  1.9 km/h 1.2 mph /  1.9 km/h 92 % 0.03 in /  0.76 mm
09:46 48.2 °F /  9 °C 45.7 °F /  7.6 °C 30.15 in /  1020.9 hPa WNW 1.2 mph /  1.9 km/h 1.2 mph /  1.9 km/h 91 % 0.03 in /  0.76 mm
09:51 49.1 °F /  9.5 °C 46.6 °F /  8.1 °C 30.15 in /  1020.9 hPa SE 1.2 mph /  1.9 km/h 1.2 mph /  1.9 km/h 91 % 0.02 in /  0.51 mm
09:56 49.5 °F /  9.7 °C 46.1 °F /  7.8 °C 30.15 in /  1020.9 hPa SSE 3.5 mph /  5.6 km/h 3.5 mph /  5.6 km/h 88 % 0.02 in /  0.51 mm
10:01 49.4 °F /  9.7 °C 45.7 °F /  7.6 °C 30.15 in /  1020.9 hPa Calm     87 % 0.01 in /  0.25 mm
10:06 49.2 °F /  9.6 °C 44.9 °F /  7.2 °C 30.16 in /  1021.2 hPa WNW 2.3 mph /  3.7 km/h 2.3 mph /  3.7 km/h 85 % 0.00 in /  0 mm
10:11 49.2 °F /  9.6 °C 44.9 °F /  7.2 °C 30.16 in /  1021.2 hPa NW 2.3 mph /  3.7 km/h 2.3 mph /  3.7 km/h 85 % 0.00 in /  0 mm
10:16 49.8 °F /  9.9 °C 45.8 °F /  7.7 °C 30.16 in /  1021.2 hPa NNE 1.2 mph /  1.9 km/h   86 % 0.00 in /  0 mm
10:21 50.5 °F /  10.3 °C 46.2 °F /  7.9 °C 30.16 in /  1021.2 hPa NNE 1.2 mph /  1.9 km/h 1.2 mph /  1.9 km/h 85 % 0.00 in /  0 mm
10:26 51.0 °F /  10.6 °C 45.7 °F /  7.6 °C 30.16 in /  1021.2 hPa East 2.3 mph /  3.7 km/h 2.3 mph /  3.7 km/h 82 % 0.00 in /  0 mm
10:31 51.5 °F /  10.8 °C 45.5 °F /  7.5 °C 30.16 in /  1021.2 hPa WNW 2.3 mph /  3.7 km/h 2.3 mph /  3.7 km/h 80 % 0.00 in /  0 mm
10:35 52.0 °F /  11.1 °C 45.7 °F /  7.6 °C 30.16 in /  1021.2 hPa NW 3.0 mph /  4.8 km/h 3.0 mph /  4.8 km/h 79 % 0.00 in /  0 mm
10:40 52.2 °F /  11.2 °C 45.5 °F /  7.5 °C 30.16 in /  1021.2 hPa SE 1.2 mph /  1.9 km/h   78 % 0.00 in /  0 mm
10:45 53.0 °F /  11.7 °C 46.0 °F /  7.8 °C 30.16 in /  1021.2 hPa Calm     77 % 0.00 in /  0 mm
10:51 53.2 °F /  11.8 °C 44.8 °F /  7.1 °C 30.16 in /  1021.2 hPa NW 2.3 mph /  3.7 km/h 2.3 mph /  3.7 km/h 73 % 0.00 in /  0 mm
10:56 53.6 °F /  12 °C 44.4 °F /  6.9 °C 30.15 in /  1020.9 hPa SE 1.2 mph /  1.9 km/h 1.2 mph /  1.9 km/h 71 % 0.00 in /  0 mm
11:01 53.9 °F /  12.2 °C 44.7 °F /  7.1 °C 30.16 in /  1021.2 hPa WNW 1.2 mph /  1.9 km/h   71 % 0.00 in /  0 mm
11:06 53.9 °F /  12.2 °C 43.6 °F /  6.4 °C 30.16 in /  1021.2 hPa NW 3.5 mph /  5.6 km/h 3.5 mph /  5.6 km/h 68 % 0.00 in /  0 mm
11:11 53.9 °F /  12.2 °C 44.0 °F /  6.7 °C 30.16 in /  1021.2 hPa NNW 2.3 mph /  3.7 km/h 2.3 mph /  3.7 km/h 69 % 0.00 in /  0 mm
11:16 54.0 °F /  12.2 °C 43.7 °F /  6.5 °C 30.15 in /  1020.9 hPa NW 1.2 mph /  1.9 km/h 1.2 mph /  1.9 km/h 68 % 0.00 in /  0 mm
11:21 54.4 °F /  12.4 °C 44.4 °F /  6.9 °C 30.15 in /  1020.9 hPa WNW 3.5 mph /  5.6 km/h 3.5 mph /  5.6 km/h 69 % 0.00 in /  0 mm
11:26 54.2 °F /  12.3 °C 43.9 °F /  6.6 °C 30.15 in /  1020.9 hPa NW 5.0 mph /  8 km/h 5.0 mph /  8 km/h 68 % 0.00 in /  0 mm
11:31 54.3 °F /  12.4 °C 44.7 °F /  7.1 °C 30.15 in /  1020.9 hPa NW 2.3 mph /  3.7 km/h 2.3 mph /  3.7 km/h 70 % 0.00 in /  0 mm
11:36 54.5 °F /  12.5 °C 43.8 °F /  6.6 °C 30.15 in /  1020.9 hPa NW 3.5 mph /  5.6 km/h 3.5 mph /  5.6 km/h 67 % 0.00 in /  0 mm
11:41 54.7 °F /  12.6 °C 44.0 °F /  6.7 °C 30.15 in /  1020.9 hPa NW 4.6 mph /  7.4 km/h 4.6 mph /  7.4 km/h 67 % 0.00 in /  0 mm
11:46 55.1 °F /  12.8 °C 42.7 °F /  5.9 °C 30.15 in /  1020.9 hPa NW 3.5 mph /  5.6 km/h 3.5 mph /  5.6 km/h 63 % 0.00 in /  0 mm
11:51 55.1 °F /  12.8 °C 42.3 °F /  5.7 °C 30.14 in /  1020.5 hPa NW 4.0 mph /  6.4 km/h 4.0 mph /  6.4 km/h 62 % 0.00 in /  0 mm
11:56 54.7 °F /  12.6 °C 40.6 °F /  4.8 °C 30.14 in /  1020.5 hPa NW 3.5 mph /  5.6 km/h 3.6 mph /  5.8 km/h 59 % 0.00 in /  0 mm
12:01 54.6 °F /  12.6 °C 41.8 °F /  5.4 °C 30.14 in /  1020.5 hPa NW 3.5 mph /  5.6 km/h 3.5 mph /  5.6 km/h 62 % 0.00 in /  0 mm
12:06 54.9 °F /  12.7 °C 40.4 °F /  4.7 °C 30.14 in /  1020.5 hPa WNW 4.6 mph /  7.4 km/h 4.6 mph /  7.4 km/h 58 % 0.00 in /  0 mm
12:11 55.3 °F /  12.9 °C 40.8 °F /  4.9 °C 30.14 in /  1020.5 hPa NW 3.5 mph /  5.6 km/h 3.5 mph /  5.6 km/h 58 % 0.00 in /  0 mm
12:16 55.3 °F /  12.9 °C 40.8 °F /  4.9 °C 30.14 in /  1020.5 hPa NNW 2.3 mph /  3.7 km/h 2.3 mph /  3.7 km/h 58 % 0.00 in /  0 mm
12:21 55.4 °F /  13 °C 41.3 °F /  5.2 °C 30.13 in /  1020.2 hPa NW 3.5 mph /  5.6 km/h 3.5 mph /  5.6 km/h 59 % 0.00 in /  0 mm
12:26 56.0 °F /  13.3 °C 41.9 °F /  5.5 °C 30.14 in /  1020.5 hPa NW 2.3 mph /  3.7 km/h 2.3 mph /  3.7 km/h 59 % 0.00 in /  0 mm
12:31 56.0 °F /  13.3 °C 41.0 °F /  5 °C 30.14 in /  1020.5 hPa NW 3.5 mph /  5.6 km/h 3.5 mph /  5.6 km/h 57 % 0.00 in /  0 mm
12:36 56.4 °F /  13.6 °C 41.8 °F /  5.4 °C 30.13 in /  1020.2 hPa NW 4.6 mph /  7.4 km/h 4.6 mph /  7.4 km/h 58 % 0.00 in /  0 mm
12:41 56.4 °F /  13.6 °C 42.2 °F /  5.7 °C 30.13 in /  1020.2 hPa NNW 3.5 mph /  5.6 km/h 3.5 mph /  5.6 km/h 59 % 0.00 in /  0 mm
12:46 56.5 °F /  13.6 °C 42.8 °F /  6 °C 30.13 in /  1020.2 hPa NW 4.6 mph /  7.4 km/h 4.6 mph /  7.4 km/h 60 % 0.00 in /  0 mm
12:51 56.7 °F /  13.7 °C 42.5 °F /  5.8 °C 30.13 in /  1020.2 hPa NW 4.6 mph /  7.4 km/h 4.6 mph /  7.4 km/h 59 % 0.00 in /  0 mm
12:56 57.0 °F /  13.9 °C 41.9 °F /  5.5 °C 30.13 in /  1020.2 hPa WNW 3.5 mph /  5.6 km/h 3.5 mph /  5.6 km/h 57 % 0.00 in /  0 mm
13:01 56.8 °F /  13.8 °C 42.2 °F /  5.7 °C 30.13 in /  1020.2 hPa NW 3.5 mph /  5.6 km/h 3.5 mph /  5.6 km/h 58 % 0.00 in /  0 mm
13:06 56.0 °F /  13.3 °C 41.4 °F /  5.2 °C 30.13 in /  1020.2 hPa NW 3.5 mph /  5.6 km/h 3.5 mph /  5.6 km/h 58 % 0.00 in /  0 mm
13:11 56.1 °F /  13.4 °C 42.4 °F /  5.8 °C 30.13 in /  1020.2 hPa North 4.0 mph /  6.4 km/h 4.0 mph /  6.4 km/h 60 % 0.00 in /  0 mm
13:16 56.5 °F /  13.6 °C 41.0 °F /  5 °C 30.12 in /  1019.9 hPa NW 4.6 mph /  7.4 km/h 4.6 mph /  7.4 km/h 56 % 0.00 in /  0 mm
13:21 55.9 °F /  13.3 °C 40.4 °F /  4.7 °C 30.12 in /  1019.9 hPa NW 4.0 mph /  6.4 km/h 4.0 mph /  6.4 km/h 56 % 0.00 in /  0 mm
13:26 55.4 °F /  13 °C 40.4 °F /  4.7 °C 30.12 in /  1019.9 hPa NNW 2.0 mph /  3.2 km/h 2.0 mph /  3.2 km/h 57 % 0.00 in /  0 mm
13:31 55.9 °F /  13.3 °C 41.3 °F /  5.2 °C 30.12 in /  1019.9 hPa WNW 3.5 mph /  5.6 km/h 3.5 mph /  5.6 km/h 58 % 0.00 in /  0 mm
13:36 56.4 °F /  13.6 °C 41.3 °F /  5.2 °C 30.12 in /  1019.9 hPa WNW 3.5 mph /  5.6 km/h 3.5 mph /  5.6 km/h 57 % 0.00 in /  0 mm
13:41 56.4 °F /  13.6 °C 41.3 °F /  5.2 °C 30.12 in /  1019.9 hPa WNW 3.5 mph /  5.6 km/h 3.5 mph /  5.6 km/h 57 % 0.00 in /  0 mm
13:46 56.1 °F /  13.4 °C 41.1 °F /  5.1 °C 30.12 in /  1019.9 hPa NNW 2.3 mph /  3.7 km/h 2.3 mph /  3.7 km/h 57 % 0.00 in /  0 mm
13:51 56.1 °F /  13.4 °C 40.6 °F /  4.8 °C 30.12 in /  1019.9 hPa NNW 2.3 mph /  3.7 km/h 2.3 mph /  3.7 km/h 56 % 0.00 in /  0 mm
13:56 55.8 °F /  13.2 °C 39.4 °F /  4.1 °C 30.12 in /  1019.9 hPa North 3.5 mph /  5.6 km/h 3.5 mph /  5.6 km/h 54 % 0.00 in /  0 mm
14:01 56.3 °F /  13.5 °C 40.3 °F /  4.6 °C 30.11 in /  1019.5 hPa NNW 3.5 mph /  5.6 km/h 3.5 mph /  5.6 km/h 55 % 0.00 in /  0 mm
14:06 56.8 °F /  13.8 °C 39.4 °F /  4.1 °C 30.11 in /  1019.5 hPa WNW 2.3 mph /  3.7 km/h 2.3 mph /  3.7 km/h 52 % 0.00 in /  0 mm
14:11 57.2 °F /  14 °C 38.2 °F /  3.4 °C 30.12 in /  1019.9 hPa NW 5.8 mph /  9.3 km/h 5.8 mph /  9.3 km/h 49 % 0.00 in /  0 mm
14:16 57.5 °F /  14.2 °C 38.5 °F /  3.6 °C 30.11 in /  1019.5 hPa NW 2.3 mph /  3.7 km/h 2.3 mph /  3.7 km/h 49 % 0.00 in /  0 mm
14:21 57.6 °F /  14.2 °C 37.5 °F /  3.1 °C 30.11 in /  1019.5 hPa NW 4.6 mph /  7.4 km/h 4.6 mph /  7.4 km/h 47 % 0.00 in /  0 mm
14:50 58.1 °F /  14.5 °C 40.1 °F /  4.5 °C 30.11 in /  1019.5 hPa NW 3.5 mph /  5.6 km/h 3.5 mph /  5.6 km/h 51 % 0.00 in /  0 mm
14:55 58.2 °F /  14.6 °C 40.6 °F /  4.8 °C 30.11 in /  1019.5 hPa NNW 4.6 mph /  7.4 km/h 4.6 mph /  7.4 km/h 52 % 0.00 in /  0 mm
15:00 58.1 °F /  14.5 °C 40.1 °F /  4.5 °C 30.12 in /  1019.9 hPa WNW 5.8 mph /  9.3 km/h 5.8 mph /  9.3 km/h 51 % 0.00 in /  0 mm
15:05 57.8 °F /  14.3 °C 40.3 °F /  4.6 °C 30.11 in /  1019.5 hPa NW 3.5 mph /  5.6 km/h 3.5 mph /  5.6 km/h 52 % 0.00 in /  0 mm
15:10 57.8 °F /  14.3 °C 39.3 °F /  4.1 °C 30.12 in /  1019.9 hPa WNW 4.6 mph /  7.4 km/h 4.6 mph /  7.4 km/h 50 % 0.00 in /  0 mm
15:15 57.4 °F /  14.1 °C 38.4 °F /  3.6 °C 30.12 in /  1019.9 hPa WNW 4.6 mph /  7.4 km/h 4.6 mph /  7.4 km/h 49 % 0.00 in /  0 mm
15:20 57.2 °F /  14 °C 38.7 °F /  3.7 °C 30.12 in /  1019.9 hPa NW 3.5 mph /  5.6 km/h 3.5 mph /  5.6 km/h 50 % 0.00 in /  0 mm
15:25 57.2 °F /  14 °C 38.7 °F /  3.7 °C 30.12 in /  1019.9 hPa NW 2.3 mph /  3.7 km/h 2.3 mph /  3.7 km/h 50 % 0.00 in /  0 mm
15:30 57.0 °F /  13.9 °C 38.0 °F /  3.3 °C 30.12 in /  1019.9 hPa NW 4.6 mph /  7.4 km/h 4.6 mph /  7.4 km/h 49 % 0.00 in /  0 mm
15:35 57.0 °F /  13.9 °C 38.5 °F /  3.6 °C 30.12 in /  1019.9 hPa North 3.5 mph /  5.6 km/h 3.5 mph /  5.6 km/h 50 % 0.00 in /  0 mm
15:40 57.0 °F /  13.9 °C 38.5 °F /  3.6 °C 30.12 in /  1019.9 hPa NW 3.5 mph /  5.6 km/h 3.5 mph /  5.6 km/h 50 % 0.00 in /  0 mm
15:45 56.8 °F /  13.8 °C 38.3 °F /  3.5 °C 30.12 in /  1019.9 hPa NW 5.8 mph /  9.3 km/h 5.8 mph /  9.3 km/h 50 % 0.00 in /  0 mm
15:50 56.6 °F /  13.7 °C 37.1 °F /  2.8 °C 30.12 in /  1019.9 hPa NW 3.5 mph /  5.6 km/h 3.5 mph /  5.6 km/h 48 % 0.00 in /  0 mm
15:55 56.5 °F /  13.6 °C 39.1 °F /  3.9 °C 30.12 in /  1019.9 hPa WNW 2.3 mph /  3.7 km/h 2.3 mph /  3.7 km/h 52 % 0.00 in /  0 mm
16:00 56.4 °F /  13.6 °C 39.0 °F /  3.9 °C 30.12 in /  1019.9 hPa WNW 2.3 mph /  3.7 km/h 2.3 mph /  3.7 km/h 52 % 0.00 in /  0 mm
16:05 56.4 °F /  13.6 °C 39.0 °F /  3.9 °C 30.13 in /  1020.2 hPa NW 4.6 mph /  7.4 km/h 4.6 mph /  7.4 km/h 52 % 0.00 in /  0 mm
16:10 56.4 °F /  13.6 °C 39.0 °F /  3.9 °C 30.13 in /  1020.2 hPa NW 3.5 mph /  5.6 km/h 3.5 mph /  5.6 km/h 52 % 0.00 in /  0 mm
16:15 56.3 °F /  13.5 °C 38.9 °F /  3.8 °C 30.13 in /  1020.2 hPa WNW 3.5 mph /  5.6 km/h 3.5 mph /  5.6 km/h 52 % 0.00 in /  0 mm
16:20 56.1 °F /  13.4 °C 38.7 °F /  3.7 °C 30.13 in /  1020.2 hPa NW 3.0 mph /  4.8 km/h 3.0 mph /  4.8 km/h 52 % 0.00 in /  0 mm
16:25 55.9 °F /  13.3 °C 39.0 °F /  3.9 °C 30.13 in /  1020.2 hPa WNW 4.6 mph /  7.4 km/h 4.6 mph /  7.4 km/h 53 % 0.00 in /  0 mm
16:30 55.7 °F /  13.2 °C 38.8 °F /  3.8 °C 30.13 in /  1020.2 hPa North 3.5 mph /  5.6 km/h 3.5 mph /  5.6 km/h 53 % 0.00 in /  0 mm
16:35 55.6 °F /  13.1 °C 38.7 °F /  3.7 °C 30.13 in /  1020.2 hPa NW 3.0 mph /  4.8 km/h 3.0 mph /  4.8 km/h 53 % 0.00 in /  0 mm
16:40 55.4 °F /  13 °C 39.0 °F /  3.9 °C 30.13 in /  1020.2 hPa Calm     54 % 0.00 in /  0 mm
16:45 55.2 °F /  12.9 °C 38.4 °F /  3.6 °C 30.13 in /  1020.2 hPa NW 3.5 mph /  5.6 km/h 3.5 mph /  5.6 km/h 53 % 0.00 in /  0 mm
16:50 55.0 °F /  12.8 °C 38.2 °F /  3.4 °C 30.13 in /  1020.2 hPa NW 2.3 mph /  3.7 km/h 2.3 mph /  3.7 km/h 53 % 0.00 in /  0 mm
16:55 54.7 °F /  12.6 °C 38.8 °F /  3.8 °C 30.13 in /  1020.2 hPa Calm     55 % 0.00 in /  0 mm
17:00 54.3 °F /  12.4 °C 38.5 °F /  3.6 °C 30.13 in /  1020.2 hPa NW 1.2 mph /  1.9 km/h 1.2 mph /  1.9 km/h 55 % 0.00 in /  0 mm
17:05 53.9 °F /  12.2 °C 39.0 °F /  3.9 °C 30.14 in /  1020.5 hPa NW 1.2 mph /  1.9 km/h 1.2 mph /  1.9 km/h 57 % 0.00 in /  0 mm
17:10 53.6 °F /  12 °C 38.7 °F /  3.7 °C 30.14 in /  1020.5 hPa Calm     57 % 0.00 in /  0 mm
17:15 53.2 °F /  11.8 °C 39.2 °F /  4 °C 30.14 in /  1020.5 hPa Calm     59 % 0.00 in /  0 mm
17:20 52.7 °F /  11.5 °C 39.2 °F /  4 °C 30.14 in /  1020.5 hPa Calm     60 % 0.00 in /  0 mm
17:25 52.3 °F /  11.3 °C 38.8 °F /  3.8 °C 30.14 in /  1020.5 hPa Calm     60 % 0.00 in /  0 mm
17:30 51.9 °F /  11.1 °C 39.3 °F /  4.1 °C 30.14 in /  1020.5 hPa Calm     62 % 0.00 in /  0 mm
17:35 51.3 °F /  10.7 °C 39.1 °F /  3.9 °C 30.15 in /  1020.9 hPa Calm     63 % 0.00 in /  0 mm
17:40 50.8 °F /  10.4 °C 39.1 °F /  3.9 °C 30.15 in /  1020.9 hPa Calm     64 % 0.00 in /  0 mm
17:45 50.1 °F /  10.1 °C 39.6 °F /  4.2 °C 30.15 in /  1020.9 hPa Calm     67 % 0.00 in /  0 mm
17:50 49.5 °F /  9.7 °C 39.0 °F /  3.9 °C 30.15 in /  1020.9 hPa Calm     67 % 0.00 in /  0 mm
17:55 49.1 °F /  9.5 °C 39.4 °F /  4.1 °C 30.15 in /  1020.9 hPa Calm     69 % 0.00 in /  0 mm
18:00 48.8 °F /  9.3 °C 39.4 °F /  4.1 °C 30.15 in /  1020.9 hPa Calm     70 % 0.00 in /  0 mm
18:05 48.4 °F /  9.1 °C 39.4 °F /  4.1 °C 30.15 in /  1020.9 hPa Calm     71 % 0.00 in /  0 mm
18:10 48.0 °F /  8.9 °C 39.8 °F /  4.3 °C 30.16 in /  1021.2 hPa Calm     73 % 0.00 in /  0 mm
18:15 47.6 °F /  8.7 °C 39.0 °F /  3.9 °C 30.16 in /  1021.2 hPa Calm     72 % 0.00 in /  0 mm
18:20 47.3 °F /  8.5 °C 39.4 °F /  4.1 °C 30.16 in /  1021.2 hPa Calm     74 % 0.00 in /  0 mm
18:25 46.9 °F /  8.3 °C 39.7 °F /  4.3 °C 30.16 in /  1021.2 hPa Calm     76 % 0.00 in /  0 mm
18:30 46.5 °F /  8.1 °C 39.3 °F /  4.1 °C 30.16 in /  1021.2 hPa Calm     76 % 0.00 in /  0 mm
18:35 46.2 °F /  7.9 °C 39.7 °F /  4.3 °C 30.16 in /  1021.2 hPa Calm     78 % 0.00 in /  0 mm
18:40 46.0 °F /  7.8 °C 39.5 °F /  4.2 °C 30.16 in /  1021.2 hPa Calm     78 % 0.00 in /  0 mm
18:45 46.0 °F /  7.8 °C 40.2 °F /  4.6 °C 30.16 in /  1021.2 hPa Calm     80 % 0.00 in /  0 mm
18:50 45.7 °F /  7.6 °C 39.9 °F /  4.4 °C 30.16 in /  1021.2 hPa Calm     80 % 0.00 in /  0 mm
18:55 45.4 °F /  7.4 °C 39.9 °F /  4.4 °C 30.17 in /  1021.6 hPa Calm     81 % 0.00 in /  0 mm
19:00 45.1 °F /  7.3 °C 39.6 °F /  4.2 °C 30.17 in /  1021.6 hPa Calm     81 % 0.00 in /  0 mm
19:05 44.8 °F /  7.1 °C 39.6 °F /  4.2 °C 30.17 in /  1021.6 hPa Calm     82 % 0.00 in /  0 mm
19:11 45.0 °F /  7.2 °C 39.8 °F /  4.3 °C 30.17 in /  1021.6 hPa Calm     82 % 0.00 in /  0 mm
19:16 44.9 °F /  7.2 °C 39.4 °F /  4.1 °C 30.17 in /  1021.6 hPa Calm     81 % 0.00 in /  0 mm
19:21 44.6 °F /  7 °C 39.4 °F /  4.1 °C 30.17 in /  1021.6 hPa Calm     82 % 0.00 in /  0 mm
19:26 44.4 °F /  6.9 °C 39.6 °F /  4.2 °C 30.17 in /  1021.6 hPa Calm     83 % 0.00 in /  0 mm
19:34 43.9 °F /  6.6 °C 39.4 °F /  4.1 °C 30.17 in /  1021.6 hPa Calm     84 % 0.00 in /  0 mm
19:40 43.8 °F /  6.6 °C 39.3 °F /  4.1 °C 30.17 in /  1021.6 hPa Calm     84 % 0.00 in /  0 mm
19:45 43.9 °F /  6.6 °C 39.4 °F /  4.1 °C 30.17 in /  1021.6 hPa Calm     84 % 0.00 in /  0 mm
19:50 44.1 °F /  6.7 °C 39.3 °F /  4.1 °C 30.17 in /  1021.6 hPa Calm     83 % 0.00 in /  0 mm
19:55 44.9 °F /  7.2 °C 39.4 °F /  4.1 °C 30.17 in /  1021.6 hPa Calm     81 % 0.00 in /  0 mm
20:00 44.9 °F /  7.2 °C 39.4 °F /  4.1 °C 30.17 in /  1021.6 hPa Calm     81 % 0.00 in /  0 mm
20:05 44.1 °F /  6.7 °C 39.0 °F /  3.9 °C 30.18 in /  1021.9 hPa Calm     82 % 0.00 in /  0 mm
20:10 43.3 °F /  6.3 °C 38.5 °F /  3.6 °C 30.18 in /  1021.9 hPa Calm     83 % 0.00 in /  0 mm
20:15 42.7 °F /  5.9 °C 38.5 °F /  3.6 °C 30.18 in /  1021.9 hPa Calm     85 % 0.00 in /  0 mm
20:20 42.2 °F /  5.7 °C 38.3 °F /  3.5 °C 30.18 in /  1021.9 hPa Calm     86 % 0.00 in /  0 mm
20:25 42.3 °F /  5.7 °C 38.4 °F /  3.6 °C 30.18 in /  1021.9 hPa Calm     86 % 0.00 in /  0 mm
20:30 42.6 °F /  5.9 °C 38.4 °F /  3.6 °C 30.18 in /  1021.9 hPa Calm     85 % 0.00 in /  0 mm
20:35 43.0 °F /  6.1 °C 38.5 °F /  3.6 °C 30.18 in /  1021.9 hPa Calm     84 % 0.00 in /  0 mm
20:40 43.2 °F /  6.2 °C 38.7 °F /  3.7 °C 30.18 in /  1021.9 hPa Calm     84 % 0.00 in /  0 mm
20:45 43.5 °F /  6.4 °C 38.7 °F /  3.7 °C 30.19 in /  1022.2 hPa Calm     83 % 0.00 in /  0 mm
20:50 43.7 °F /  6.5 °C 38.6 °F /  3.7 °C 30.19 in /  1022.2 hPa Calm     82 % 0.00 in /  0 mm
20:55 43.6 °F /  6.4 °C 38.5 °F /  3.6 °C 30.19 in /  1022.2 hPa Calm     82 % 0.00 in /  0 mm
21:00 43.5 °F /  6.4 °C 38.4 °F /  3.6 °C 30.19 in /  1022.2 hPa Calm     82 % 0.00 in /  0 mm
21:05 43.3 °F /  6.3 °C 38.2 °F /  3.4 °C 30.19 in /  1022.2 hPa Calm     82 % 0.00 in /  0 mm
21:10 43.1 °F /  6.2 °C 38.0 °F /  3.3 °C 30.19 in /  1022.2 hPa Calm     82 % 0.00 in /  0 mm
21:15 43.1 °F /  6.2 °C 38.3 °F /  3.5 °C 30.20 in /  1022.6 hPa Calm     83 % 0.00 in /  0 mm
21:20 43.3 °F /  6.3 °C 38.2 °F /  3.4 °C 30.20 in /  1022.6 hPa Calm     82 % 0.00 in /  0 mm
21:25 43.6 °F /  6.4 °C 38.2 °F /  3.4 °C 30.20 in /  1022.6 hPa Calm     81 % 0.00 in /  0 mm
21:30 43.8 °F /  6.6 °C 38.0 °F /  3.3 °C 30.20 in /  1022.6 hPa Calm     80 % 0.00 in /  0 mm
21:35 43.8 °F /  6.6 °C 38.0 °F /  3.3 °C 30.20 in /  1022.6 hPa Calm     80 % 0.00 in /  0 mm
21:40 43.8 °F /  6.6 °C 38.0 °F /  3.3 °C 30.20 in /  1022.6 hPa Calm     80 % 0.00 in /  0 mm
21:45 43.8 °F /  6.6 °C 38.0 °F /  3.3 °C 30.20 in /  1022.6 hPa Calm     80 % 0.00 in /  0 mm
21:50 43.7 °F /  6.5 °C 37.9 °F /  3.3 °C 30.20 in /  1022.6 hPa Calm     80 % 0.00 in /  0 mm
21:55 43.3 °F /  6.3 °C 37.9 °F /  3.3 °C 30.21 in /  1022.9 hPa Calm     81 % 0.00 in /  0 mm
22:00 42.7 °F /  5.9 °C 37.6 °F /  3.1 °C 30.21 in /  1022.9 hPa Calm     82 % 0.00 in /  0 mm
22:05 41.8 °F /  5.4 °C 37.0 °F /  2.8 °C 30.21 in /  1022.9 hPa Calm     83 % 0.00 in /  0 mm
22:10 41.1 °F /  5.1 °C 36.9 °F /  2.7 °C 30.21 in /  1022.9 hPa Calm     85 % 0.00 in /  0 mm
22:15 40.8 °F /  4.9 °C 36.9 °F /  2.7 °C 30.22 in /  1023.2 hPa Calm     86 % 0.00 in /  0 mm
22:20 40.4 °F /  4.7 °C 36.5 °F /  2.5 °C 30.22 in /  1023.2 hPa Calm     86 % 0.00 in /  0 mm
22:25 39.9 °F /  4.4 °C 36.3 °F /  2.4 °C 30.22 in /  1023.2 hPa Calm     87 % 0.00 in /  0 mm
22:30 39.5 °F /  4.2 °C 36.2 °F /  2.3 °C 30.22 in /  1023.2 hPa Calm     88 % 0.00 in /  0 mm
22:35 39.2 °F /  4 °C 35.9 °F /  2.2 °C 30.23 in /  1023.6 hPa Calm     88 % 0.00 in /  0 mm
22:40 39.1 °F /  3.9 °C 36.1 °F /  2.3 °C 30.23 in /  1023.6 hPa Calm     89 % 0.00 in /  0 mm
22:45 39.2 °F /  4 °C 36.2 °F /  2.3 °C 30.23 in /  1023.6 hPa Calm     89 % 0.00 in /  0 mm
22:50 39.3 °F /  4.1 °C 36.3 °F /  2.4 °C 30.23 in /  1023.6 hPa Calm     89 % 0.00 in /  0 mm
22:55 39.5 °F /  4.2 °C 36.8 °F /  2.7 °C 30.24 in /  1023.9 hPa Calm     90 % 0.00 in /  0 mm
23:00 39.6 °F /  4.2 °C 36.6 °F /  2.6 °C 30.23 in /  1023.6 hPa Calm     89 % 0.00 in /  0 mm
23:05 39.5 °F /  4.2 °C 36.5 °F /  2.5 °C 30.24 in /  1023.9 hPa Calm     89 % 0.00 in /  0 mm
23:10 39.5 °F /  4.2 °C 36.5 °F /  2.5 °C 30.24 in /  1023.9 hPa East 1.0 mph /  1.6 km/h 1.0 mph /  1.6 km/h 89 % 0.00 in /  0 mm
23:15 39.1 °F /  3.9 °C 35.8 °F /  2.1 °C 30.24 in /  1023.9 hPa East 1.2 mph /  1.9 km/h   88 % 0.00 in /  0 mm
23:20 38.8 °F /  3.8 °C 35.8 °F /  2.1 °C 30.24 in /  1023.9 hPa Calm     89 % 0.00 in /  0 mm
23:25 38.7 °F /  3.7 °C 35.7 °F /  2.1 °C 30.24 in /  1023.9 hPa East 1.2 mph /  1.9 km/h   89 % 0.00 in /  0 mm
23:30 38.5 °F /  3.6 °C 35.5 °F /  1.9 °C 30.24 in /  1023.9 hPa Calm     89 % 0.00 in /  0 mm
23:35 38.3 °F /  3.5 °C 35.3 °F /  1.8 °C 30.24 in /  1023.9 hPa Calm     89 % 0.00 in /  0 mm
23:40 38.0 °F /  3.3 °C 35.3 °F /  1.8 °C 30.24 in /  1023.9 hPa East 1.2 mph /  1.9 km/h   90 % 0.00 in /  0 mm
23:45 37.9 °F /  3.3 °C 35.2 °F /  1.8 °C 30.24 in /  1023.9 hPa Calm     90 % 0.00 in /  0 mm
23:50 37.7 °F /  3.2 °C 35.0 °F /  1.7 °C 30.24 in /  1023.9 hPa Calm     90 % 0.00 in /  0 mm
23:55 37.6 °F /  3.1 °C 34.9 °F /  1.6 °C 30.24 in /  1023.9 hPa Calm     90 % 0.00 in /  0 mm
Park Place, Exeter, Tulare County, California, USA
Compliments of Weather Underground - 2.75 mb